createdAt,value
2023-01-26T00:01:15.412Z,122.77
2023-01-26T00:03:42.549Z,127.03
2023-01-26T00:06:11.814Z,129.53
2023-01-26T00:08:43.456Z,131.90
2023-01-26T00:11:12.772Z,129.00
2023-01-26T00:13:39.530Z,125.77
2023-01-26T00:16:16.098Z,129.33
2023-01-26T00:18:43.720Z,122.20
2023-01-26T00:21:14.515Z,129.60
2023-01-26T00:23:41.323Z,121.60
2023-01-26T00:26:10.608Z,131.50
2023-01-26T00:28:37.339Z,123.43
2023-01-26T00:31:10.317Z,127.37
2023-01-26T00:33:36.999Z,125.53
2023-01-26T00:36:04.626Z,120.10
2023-01-26T00:38:31.716Z,125.40
2023-01-26T00:40:58.570Z,124.83
2023-01-26T00:43:25.350Z,134.20
2023-01-26T00:45:52.213Z,124.27
2023-01-26T00:48:18.853Z,125.17
2023-01-26T00:50:45.538Z,133.80
2023-01-26T00:53:12.232Z,123.67
2023-01-26T00:55:38.919Z,118.03
2023-01-26T00:58:07.933Z,118.80
2023-01-26T01:00:37.496Z,113.63
2023-01-26T01:03:05.618Z,115.20
2023-01-26T01:05:33.381Z,114.07
2023-01-26T01:08:01.519Z,126.23
2023-01-26T01:10:28.658Z,120.60
2023-01-26T01:12:56.538Z,125.50
2023-01-26T01:15:24.144Z,115.60
2023-01-26T01:17:51.092Z,120.53
2023-01-26T01:20:17.821Z,125.83
2023-01-26T01:22:44.606Z,118.73
2023-01-26T01:25:11.571Z,110.97
2023-01-26T01:27:38.302Z,115.33
2023-01-26T01:30:08.352Z,113.97
2023-01-26T01:32:39.953Z,106.90
2023-01-26T01:35:07.556Z,115.17
2023-01-26T01:37:34.795Z,106.93
2023-01-26T01:40:01.505Z,117.20
2023-01-26T01:42:28.490Z,118.53
2023-01-26T01:45:26.350Z,115.57
2023-01-26T01:48:03.381Z,100.93
2023-01-26T01:50:35.350Z,93.97
2023-01-26T01:53:02.116Z,101.03
2023-01-26T01:55:29.214Z,115.30
2023-01-26T01:58:00.217Z,115.83
2023-01-26T02:00:27.869Z,110.67
2023-01-26T02:03:19.225Z,105.93
2023-01-26T02:06:07.406Z,106.77
2023-01-26T02:08:38.284Z,96.87
2023-01-26T02:11:10.540Z,105.20
2023-01-26T02:13:39.040Z,98.03
2023-01-26T02:16:06.140Z,101.63
2023-01-26T02:18:33.029Z,86.90
2023-01-26T02:21:03.016Z,99.33
2023-01-26T02:23:40.640Z,93.87
2023-01-26T02:26:11.242Z,102.03
2023-01-26T02:28:39.767Z,96.27
2023-01-26T02:31:07.159Z,85.80
2023-01-26T02:33:34.794Z,82.83
2023-01-26T02:36:05.378Z,83.40
2023-01-26T02:38:42.301Z,83.40
2023-01-26T02:41:12.251Z,80.33
2023-01-26T02:43:40.321Z,87.27
2023-01-26T02:46:07.038Z,72.87
2023-01-26T02:48:52.762Z,73.40
2023-01-26T02:51:19.540Z,72.23
2023-01-26T02:53:46.201Z,74.63
2023-01-26T02:56:12.995Z,70.63
2023-01-26T02:58:39.785Z,72.70
2023-01-26T03:01:06.462Z,75.90
2023-01-26T03:03:42.213Z,77.57
2023-01-26T03:06:10.519Z,75.63
2023-01-26T03:08:37.513Z,72.10
2023-01-26T03:11:05.486Z,67.83
2023-01-26T03:13:32.197Z,67.10
2023-01-26T03:16:02.725Z,76.03
2023-01-26T03:18:48.154Z,69.93
2023-01-26T03:21:36.105Z,69.67
2023-01-26T03:24:21.761Z,79.47
2023-01-26T03:27:07.371Z,67.20
2023-01-26T03:29:34.469Z,74.70
2023-01-26T03:32:01.288Z,71.47
2023-01-26T03:34:29.535Z,81.07
2023-01-26T03:36:56.389Z,69.47
2023-01-26T03:39:41.760Z,72.23
2023-01-26T03:42:27.255Z,67.07
2023-01-26T03:45:12.788Z,72.17
2023-01-26T03:47:58.088Z,62.73
2023-01-26T03:50:43.563Z,63.53
2023-01-26T03:53:39.676Z,56.80
2023-01-26T03:56:24.729Z,57.00
2023-01-26T03:58:56.322Z,52.87
2023-01-26T04:01:28.376Z,54.80
2023-01-26T04:04:15.705Z,58.73
2023-01-26T04:07:03.159Z,53.90
2023-01-26T04:09:31.334Z,57.20
2023-01-26T04:11:58.517Z,63.93
2023-01-26T04:14:50.357Z,61.93
2023-01-26T04:17:37.061Z,51.53
2023-01-26T04:20:24.154Z,56.87
2023-01-26T04:22:50.864Z,53.83
2023-01-26T04:25:20.456Z,47.10
2023-01-26T04:27:47.238Z,49.27
2023-01-26T04:30:15.774Z,48.23
2023-01-26T04:32:43.948Z,52.80
2023-01-26T04:35:10.886Z,50.97
2023-01-26T04:37:38.713Z,53.13
2023-01-26T04:40:07.044Z,52.53
2023-01-26T04:42:33.794Z,52.03
2023-01-26T04:45:01.509Z,45.40
2023-01-26T04:47:29.411Z,48.37
2023-01-26T04:49:56.248Z,46.87
2023-01-26T04:52:22.985Z,44.37
2023-01-26T04:54:49.743Z,45.40
2023-01-26T04:57:16.725Z,43.53
2023-01-26T04:59:43.373Z,44.67
2023-01-26T05:02:10.822Z,41.97
2023-01-26T05:04:37.765Z,45.80
2023-01-26T05:07:04.498Z,40.37
2023-01-26T05:09:31.261Z,42.90
2023-01-26T05:12:17.900Z,40.93
2023-01-26T05:14:44.656Z,46.27
2023-01-26T05:17:11.379Z,41.30
2023-01-26T05:19:38.125Z,42.97
2023-01-26T05:22:04.965Z,42.60
2023-01-26T05:24:31.616Z,44.47
2023-01-26T05:27:18.256Z,37.07
2023-01-26T05:29:44.892Z,41.13
2023-01-26T05:32:11.636Z,42.90
2023-01-26T05:34:38.532Z,41.80
2023-01-26T05:37:05.404Z,40.43
2023-01-26T05:39:32.069Z,41.50
2023-01-26T05:41:58.803Z,39.53
2023-01-26T05:44:25.593Z,42.17
2023-01-26T05:46:52.611Z,41.07
2023-01-26T05:49:19.373Z,40.47
2023-01-26T05:51:46.063Z,39.03
2023-01-26T05:54:12.807Z,42.50
2023-01-26T05:56:39.526Z,38.97
2023-01-26T05:59:06.242Z,38.23
2023-01-26T06:01:32.963Z,42.17
2023-01-26T06:03:59.760Z,36.77
2023-01-26T06:06:26.462Z,36.80
2023-01-26T06:08:53.138Z,37.80
2023-01-26T06:11:19.811Z,39.87
2023-01-26T06:13:46.484Z,36.93
2023-01-26T06:16:13.163Z,41.60
2023-01-26T06:18:39.834Z,34.07
2023-01-26T06:21:06.531Z,42.10
2023-01-26T06:23:33.205Z,36.23
2023-01-26T06:26:00.704Z,39.67
2023-01-26T06:28:28.595Z,35.67
2023-01-26T06:31:03.656Z,37.43
2023-01-26T06:33:32.445Z,38.60
2023-01-26T06:36:05.786Z,39.73
2023-01-26T06:38:32.654Z,36.07
2023-01-26T06:41:03.507Z,34.70
2023-01-26T06:43:31.551Z,38.07
2023-01-26T06:45:59.064Z,41.03
2023-01-26T06:48:27.287Z,31.17
2023-01-26T06:50:57.695Z,33.97
2023-01-26T06:53:34.540Z,38.47
2023-01-26T06:56:01.281Z,39.10
2023-01-26T06:58:27.974Z,39.13
2023-01-26T07:00:55.749Z,42.00
2023-01-26T07:03:22.459Z,40.80
2023-01-26T07:05:49.112Z,42.37
2023-01-26T07:08:15.803Z,36.10
2023-01-26T07:10:42.442Z,43.40
2023-01-26T07:13:09.119Z,41.57
2023-01-26T07:15:35.792Z,46.97
2023-01-26T07:18:02.639Z,49.30
2023-01-26T07:20:29.401Z,54.03
2023-01-26T07:22:56.106Z,48.10
2023-01-26T07:25:22.767Z,45.33
2023-01-26T07:27:49.393Z,41.30
2023-01-26T07:30:16.473Z,37.03
2023-01-26T07:32:43.200Z,37.07
2023-01-26T07:35:09.937Z,39.37
2023-01-26T07:37:36.612Z,45.73
2023-01-26T07:40:03.769Z,39.33
2023-01-26T07:42:31.094Z,45.20
2023-01-26T07:44:57.901Z,42.43
2023-01-26T07:47:24.553Z,44.50
2023-01-26T07:49:51.320Z,43.23
2023-01-26T07:52:18.007Z,43.23
2023-01-26T07:54:44.779Z,47.17
2023-01-26T07:57:12.773Z,44.53
2023-01-26T07:59:39.427Z,47.43
2023-01-26T08:02:06.340Z,49.40
2023-01-26T08:04:32.999Z,57.97
2023-01-26T08:06:59.730Z,49.20
2023-01-26T08:09:26.526Z,64.20
2023-01-26T08:11:53.198Z,60.70
2023-01-26T08:14:19.898Z,58.57
2023-01-26T08:16:46.739Z,63.87
2023-01-26T08:19:13.436Z,60.30
2023-01-26T08:21:40.068Z,83.40
2023-01-26T08:24:07.191Z,67.40
2023-01-26T08:26:33.862Z,68.17
2023-01-26T08:29:00.862Z,68.37
2023-01-26T08:31:28.232Z,72.23
2023-01-26T08:33:56.343Z,83.93
2023-01-26T08:36:23.415Z,74.40
2023-01-26T08:38:50.801Z,96.73
2023-01-26T08:41:17.676Z,87.50
2023-01-26T08:43:44.497Z,94.63
2023-01-26T08:46:11.346Z,107.10
2023-01-26T08:48:38.579Z,110.13
2023-01-26T08:51:06.688Z,120.57
2023-01-26T08:53:35.618Z,111.53
2023-01-26T08:56:03.710Z,100.70
2023-01-26T08:58:31.044Z,110.47
2023-01-26T09:00:57.854Z,125.17
2023-01-26T09:03:24.661Z,106.60
2023-01-26T09:05:51.379Z,116.60
2023-01-26T09:08:18.052Z,131.13
2023-01-26T09:10:47.453Z,136.37
2023-01-26T09:13:14.116Z,150.47
2023-01-26T09:15:40.879Z,160.10
2023-01-26T09:18:07.638Z,155.27
2023-01-26T09:20:34.335Z,180.03
2023-01-26T09:23:01.004Z,190.27
2023-01-26T09:25:27.669Z,194.43
2023-01-26T09:27:54.314Z,152.10
2023-01-26T09:30:21.106Z,183.07
2023-01-26T09:32:47.837Z,193.43
2023-01-26T09:35:15.271Z,171.97
2023-01-26T09:37:44.989Z,146.93
2023-01-26T09:40:19.153Z,104.20
2023-01-26T09:42:48.757Z,97.00
2023-01-26T09:45:26.522Z,109.20
2023-01-26T09:48:18.160Z,111.87
2023-01-26T09:51:10.583Z,88.90
2023-01-26T09:53:47.183Z,89.37
2023-01-26T09:56:20.774Z,93.07
2023-01-26T09:58:57.857Z,90.90
2023-01-26T10:02:06.530Z,103.17
2023-01-26T10:04:37.425Z,91.67
2023-01-26T10:07:10.477Z,97.43
2023-01-26T10:09:40.935Z,95.87
2023-01-26T10:12:25.537Z,94.33
2023-01-26T10:14:54.989Z,107.03
2023-01-26T10:17:31.959Z,93.77
2023-01-26T10:20:07.335Z,91.07
2023-01-26T10:22:45.030Z,99.87
2023-01-26T10:25:25.470Z,98.03
2023-01-26T10:27:52.830Z,99.67
2023-01-26T10:30:21.302Z,92.00
2023-01-26T10:32:52.302Z,90.17
2023-01-26T10:35:24.560Z,85.00
2023-01-26T10:37:53.031Z,75.47
2023-01-26T10:40:21.084Z,64.70
2023-01-26T10:42:59.679Z,77.60
2023-01-26T10:45:28.513Z,65.53
2023-01-26T10:48:06.798Z,79.17
2023-01-26T10:50:33.662Z,63.97
2023-01-26T10:53:05.084Z,55.97
2023-01-26T10:55:37.224Z,61.53
2023-01-26T10:58:03.911Z,55.43
2023-01-26T11:00:33.327Z,54.53
2023-01-26T11:03:15.901Z,47.73
2023-01-26T11:05:43.615Z,45.03
2023-01-26T11:08:37.012Z,52.63
2023-01-26T11:11:07.679Z,39.40
2023-01-26T11:13:34.342Z,51.90
2023-01-26T11:16:14.070Z,46.27
2023-01-26T11:18:46.744Z,42.83
2023-01-26T11:21:29.095Z,34.97
2023-01-26T11:24:24.823Z,34.33
2023-01-26T11:27:18.751Z,36.93
2023-01-26T11:30:13.027Z,32.77
2023-01-26T11:32:39.650Z,34.97
2023-01-26T11:35:22.468Z,36.23
2023-01-26T11:37:59.473Z,43.37
2023-01-26T11:40:40.761Z,36.77
2023-01-26T11:43:19.421Z,21.83
2023-01-26T11:45:52.063Z,28.93
2023-01-26T11:48:36.538Z,21.57
2023-01-26T11:51:28.135Z,33.40
2023-01-26T11:54:11.146Z,21.37
2023-01-26T11:56:44.160Z,28.47
2023-01-26T11:59:27.242Z,28.30
2023-01-26T12:02:03.934Z,29.47
2023-01-26T12:04:36.539Z,21.33
2023-01-26T12:07:28.803Z,12.77
2023-01-26T12:09:56.200Z,31.13
2023-01-26T12:12:23.045Z,21.40
2023-01-26T12:14:57.666Z,23.30
2023-01-26T12:17:31.826Z,20.83
2023-01-26T12:20:15.220Z,28.03
2023-01-26T12:22:52.736Z,23.97
2023-01-26T12:25:37.259Z,20.40
2023-01-26T12:29:01.563Z,21.03
2023-01-26T12:31:35.864Z,26.53
2023-01-26T12:34:02.759Z,30.27
2023-01-26T12:37:06.148Z,16.57
2023-01-26T12:39:45.839Z,23.40
2023-01-26T12:42:27.917Z,16.83
2023-01-26T12:44:54.724Z,18.63
2023-01-26T12:47:49.983Z,24.77
2023-01-26T12:50:39.714Z,21.40
2023-01-26T12:53:15.225Z,13.87
2023-01-26T12:55:56.533Z,21.57
2023-01-26T12:58:32.124Z,14.83
2023-01-26T13:01:15.417Z,20.63
2023-01-26T13:03:53.822Z,10.83
2023-01-26T13:06:24.539Z,12.43
2023-01-26T13:09:19.708Z,13.80
2023-01-26T13:12:00.051Z,14.10
2023-01-26T13:14:40.564Z,13.80
2023-01-26T13:17:16.443Z,14.80
2023-01-26T13:19:43.137Z,17.10
2023-01-26T13:22:18.675Z,9.60
2023-01-26T13:24:48.757Z,14.07
2023-01-26T13:27:35.101Z,14.43
2023-01-26T13:30:01.965Z,14.70
2023-01-26T13:32:28.564Z,10.23
2023-01-26T13:35:02.607Z,11.07
2023-01-26T13:37:52.968Z,16.73
2023-01-26T13:40:31.100Z,10.30
2023-01-26T13:43:25.270Z,12.13
2023-01-26T13:46:12.714Z,9.33
2023-01-26T13:48:39.349Z,10.07
2023-01-26T13:51:09.051Z,8.57
2023-01-26T13:53:37.291Z,12.20
2023-01-26T13:56:06.843Z,11.63
2023-01-26T13:58:34.061Z,13.73
2023-01-26T14:01:11.973Z,8.17
2023-01-26T14:03:38.602Z,9.93
2023-01-26T14:06:26.244Z,9.53
2023-01-26T14:08:55.600Z,10.20
2023-01-26T14:11:25.020Z,9.13
2023-01-26T14:13:58.865Z,11.27
2023-01-26T14:16:30.752Z,13.03
2023-01-26T14:19:14.200Z,10.30
2023-01-26T14:21:55.612Z,13.43
2023-01-26T14:24:31.459Z,8.40
2023-01-26T14:26:58.237Z,10.33
2023-01-26T14:29:27.549Z,9.83
2023-01-26T14:31:56.516Z,11.63
2023-01-26T14:34:25.627Z,9.47
2023-01-26T14:37:07.062Z,12.20
2023-01-26T14:39:34.216Z,9.80
2023-01-26T14:42:01.714Z,11.90
2023-01-26T14:44:28.397Z,8.70
2023-01-26T14:46:57.906Z,12.77
2023-01-26T14:49:35.542Z,9.33
2023-01-26T14:52:02.780Z,11.40
2023-01-26T14:54:39.380Z,9.43
2023-01-26T14:57:09.523Z,5.90
2023-01-26T14:59:40.951Z,4.70
2023-01-26T15:02:20.442Z,4.33
2023-01-26T15:04:56.941Z,7.23
2023-01-26T15:07:34.368Z,8.43
2023-01-26T15:10:02.107Z,4.33
2023-01-26T15:12:33.971Z,9.13
2023-01-26T15:15:01.680Z,7.10
2023-01-26T15:17:39.084Z,11.00
2023-01-26T15:20:33.191Z,12.53
2023-01-26T15:22:59.881Z,11.73
2023-01-26T15:25:28.116Z,9.40
2023-01-26T15:27:59.605Z,15.40
2023-01-26T15:30:32.508Z,11.90
2023-01-26T15:33:00.042Z,12.47
2023-01-26T15:35:34.777Z,12.43
2023-01-26T15:38:08.843Z,13.23
2023-01-26T15:40:35.989Z,8.77
2023-01-26T15:43:16.966Z,10.17
2023-01-26T15:45:51.915Z,7.80
2023-01-26T15:48:19.014Z,11.83
2023-01-26T15:50:48.022Z,13.07
2023-01-26T15:53:15.929Z,6.93
2023-01-26T15:55:44.258Z,5.47
2023-01-26T15:58:11.231Z,7.57
2023-01-26T16:00:38.774Z,5.50
2023-01-26T16:03:11.989Z,4.97
2023-01-26T16:05:38.681Z,7.70
2023-01-26T16:08:05.456Z,6.43
2023-01-26T16:10:32.110Z,9.10
2023-01-26T16:12:58.803Z,9.47
2023-01-26T16:15:47.267Z,11.57
2023-01-26T16:18:14.628Z,7.43
2023-01-26T16:20:43.651Z,12.30
2023-01-26T16:23:28.668Z,12.23
2023-01-26T16:25:55.977Z,13.83
2023-01-26T16:28:22.754Z,11.50
2023-01-26T16:30:51.293Z,12.43
2023-01-26T16:33:22.556Z,10.80
2023-01-26T16:35:49.214Z,13.43
2023-01-26T16:38:16.331Z,11.93
2023-01-26T16:40:45.950Z,8.03
2023-01-26T16:43:22.037Z,9.43
2023-01-26T16:45:50.308Z,6.63
2023-01-26T16:48:19.880Z,14.40
2023-01-26T16:50:50.004Z,5.30
2023-01-26T16:53:29.067Z,7.50
2023-01-26T16:55:56.208Z,9.13
2023-01-26T16:58:26.352Z,9.53
2023-01-26T17:00:54.539Z,15.10
2023-01-26T17:03:21.259Z,15.90
2023-01-26T17:05:47.961Z,7.80
2023-01-26T17:08:14.665Z,15.27
2023-01-26T17:10:52.014Z,12.10
2023-01-26T17:13:22.367Z,10.83
2023-01-26T17:15:49.104Z,12.07
2023-01-26T17:18:15.780Z,16.60
2023-01-26T17:20:42.455Z,17.87
2023-01-26T17:23:09.452Z,11.70
2023-01-26T17:25:36.148Z,11.43
2023-01-26T17:28:03.348Z,13.77
2023-01-26T17:30:30.104Z,16.90
2023-01-26T17:32:56.993Z,11.67
2023-01-26T17:35:23.887Z,11.60
2023-01-26T17:37:50.931Z,13.87
2023-01-26T17:40:17.785Z,24.33
2023-01-26T17:42:44.542Z,11.73
2023-01-26T17:45:11.937Z,15.43
2023-01-26T17:47:38.889Z,12.07
2023-01-26T17:50:06.043Z,16.50
2023-01-26T17:52:35.283Z,10.20
2023-01-26T17:55:05.131Z,14.00
2023-01-26T17:57:32.270Z,10.87
2023-01-26T17:59:58.924Z,14.10
2023-01-26T18:02:25.646Z,16.00
2023-01-26T18:04:52.397Z,16.20
2023-01-26T18:07:19.062Z,14.73
2023-01-26T18:09:45.771Z,14.97
2023-01-26T18:12:12.416Z,15.03
2023-01-26T18:14:39.063Z,11.40
2023-01-26T18:17:05.791Z,21.07
2023-01-26T18:19:32.576Z,19.13
2023-01-26T18:21:59.208Z,12.27
2023-01-26T18:24:25.980Z,13.87
2023-01-26T18:26:52.644Z,15.50
2023-01-26T18:29:19.259Z,8.70
2023-01-26T18:31:47.931Z,14.20
2023-01-26T18:34:14.701Z,12.67
2023-01-26T18:36:41.414Z,12.17
2023-01-26T18:39:13.094Z,16.13
2023-01-26T18:41:40.809Z,16.00
2023-01-26T18:44:08.292Z,15.33
2023-01-26T18:46:35.040Z,11.17
2023-01-26T18:49:02.997Z,18.50
2023-01-26T18:51:32.730Z,16.60
2023-01-26T18:53:59.892Z,15.13
2023-01-26T18:56:26.744Z,20.20
2023-01-26T18:58:54.023Z,14.67
2023-01-26T19:01:21.857Z,16.43
2023-01-26T19:03:54.805Z,17.47
2023-01-26T19:06:23.511Z,13.07
2023-01-26T19:08:57.609Z,13.87
2023-01-26T19:11:26.574Z,12.83
2023-01-26T19:13:53.365Z,17.43
2023-01-26T19:16:20.392Z,9.00
2023-01-26T19:18:47.185Z,14.43
2023-01-26T19:21:14.054Z,26.03
2023-01-26T19:23:42.607Z,17.93
2023-01-26T19:26:11.349Z,10.53
2023-01-26T19:28:41.226Z,19.67
2023-01-26T19:31:09.515Z,22.60
2023-01-26T19:33:36.798Z,14.93
2023-01-26T19:36:10.682Z,17.30
2023-01-26T19:38:39.723Z,17.07
2023-01-26T19:41:06.722Z,14.10
2023-01-26T19:43:33.417Z,16.67
2023-01-26T19:46:00.193Z,16.63
2023-01-26T19:48:28.232Z,15.63
2023-01-26T19:51:07.198Z,23.13
2023-01-26T19:53:36.083Z,24.30
2023-01-26T19:56:12.755Z,19.87
2023-01-26T19:58:39.632Z,18.63
2023-01-26T20:01:08.944Z,18.87
2023-01-26T20:03:36.276Z,19.37
2023-01-26T20:06:04.356Z,16.33
2023-01-26T20:08:31.581Z,17.87
2023-01-26T20:11:09.425Z,16.30
2023-01-26T20:13:36.551Z,25.67
2023-01-26T20:16:06.699Z,18.97
2023-01-26T20:18:33.985Z,15.57
2023-01-26T20:21:01.097Z,20.13
2023-01-26T20:23:28.068Z,27.30
2023-01-26T20:26:06.819Z,21.87
2023-01-26T20:28:33.936Z,18.47
2023-01-26T20:31:16.461Z,26.77
2023-01-26T20:33:47.601Z,14.17
2023-01-26T20:36:21.185Z,14.17
2023-01-26T20:38:48.602Z,23.07
2023-01-26T20:41:21.156Z,19.70
2023-01-26T20:44:03.103Z,18.13
2023-01-26T20:46:38.514Z,26.80
2023-01-26T20:49:06.854Z,16.23
2023-01-26T20:51:35.841Z,17.77
2023-01-26T20:54:06.490Z,25.33
2023-01-26T20:56:33.958Z,19.33
2023-01-26T20:59:01.774Z,16.37
2023-01-26T21:01:28.591Z,23.70
2023-01-26T21:03:55.325Z,19.17
2023-01-26T21:06:24.120Z,21.90
2023-01-26T21:08:54.842Z,18.90
2023-01-26T21:11:24.274Z,24.60
2023-01-26T21:13:52.017Z,15.17
2023-01-26T21:16:18.895Z,24.10
2023-01-26T21:18:46.171Z,13.90
2023-01-26T21:21:17.524Z,16.67
2023-01-26T21:23:44.694Z,32.23
2023-01-26T21:26:22.946Z,24.00
2023-01-26T21:28:54.284Z,19.97
2023-01-26T21:31:22.523Z,23.23
2023-01-26T21:33:49.831Z,19.60
2023-01-26T21:36:21.546Z,16.50
2023-01-26T21:38:50.871Z,20.90
2023-01-26T21:41:47.729Z,18.87
2023-01-26T21:44:17.425Z,17.17
2023-01-26T21:46:49.732Z,17.70
2023-01-26T21:49:17.780Z,20.77
2023-01-26T21:52:03.551Z,25.60
2023-01-26T21:54:30.318Z,19.70
2023-01-26T21:56:59.168Z,17.57
2023-01-26T21:59:25.842Z,21.00
2023-01-26T22:01:55.433Z,24.43
2023-01-26T22:04:28.335Z,19.23
2023-01-26T22:06:58.284Z,23.80
2023-01-26T22:09:25.235Z,24.03
2023-01-26T22:11:52.362Z,21.63
2023-01-26T22:14:21.702Z,18.00
2023-01-26T22:16:48.860Z,22.20
2023-01-26T22:19:15.763Z,27.87
2023-01-26T22:21:42.683Z,20.63
2023-01-26T22:24:12.082Z,22.07
2023-01-26T22:26:39.723Z,24.10
2023-01-26T22:29:07.241Z,21.20
2023-01-26T22:31:34.130Z,15.90
2023-01-26T22:34:01.314Z,17.33
2023-01-26T22:36:28.862Z,17.73
2023-01-26T22:38:56.079Z,26.27
2023-01-26T22:41:26.100Z,14.10
2023-01-26T22:43:56.110Z,17.43
2023-01-26T22:46:25.290Z,13.87
2023-01-26T22:48:52.520Z,14.43
2023-01-26T22:51:24.995Z,16.13
2023-01-26T22:53:53.188Z,19.03
2023-01-26T22:56:20.542Z,16.10
2023-01-26T22:58:58.110Z,17.70
2023-01-26T23:01:31.406Z,19.97
2023-01-26T23:03:59.092Z,21.67
2023-01-26T23:06:26.708Z,12.37
2023-01-26T23:08:54.273Z,14.80
2023-01-26T23:11:24.398Z,23.70
2023-01-26T23:13:53.021Z,13.77
2023-01-26T23:16:22.724Z,19.97
2023-01-26T23:18:49.740Z,22.47
2023-01-26T23:21:16.639Z,18.20
2023-01-26T23:23:43.345Z,14.20
2023-01-26T23:26:10.789Z,14.87
2023-01-26T23:28:40.823Z,13.57
2023-01-26T23:31:08.424Z,12.17
2023-01-26T23:33:36.354Z,10.90
2023-01-26T23:36:05.309Z,12.27
2023-01-26T23:38:32.698Z,15.03
2023-01-26T23:41:00.581Z,13.47
2023-01-26T23:43:27.992Z,12.30
2023-01-26T23:45:56.569Z,18.47
2023-01-26T23:48:24.432Z,12.60
2023-01-26T23:51:05.959Z,16.77
2023-01-26T23:53:33.256Z,18.07
2023-01-26T23:56:03.672Z,16.63
2023-01-26T23:58:30.472Z,15.30
